Airfield :
LOGIN :

Register | Disclaimer

   EN    FR    IT 

 










Legend :    VFR   Marginal VFR   IFR   Intensive IFR   Very Intensive IFR
Visi :
Ceiling :
>= 8 km
>= 3000ft
5 to 8 km
1000 to 3000 ft
1500m to 5 km
500 to 1000 ft
800 to 1500m
200 to 500 ft
< 800m
< 200 ft
Symbols :   Thunderstorms  Fog  Heavy snow  Heavy precipitations  Wind > 20 kt
SIGMETs :     Misc.  Thunderstorms  Icing  Turbulence  Mountain Waves  Volcanic Ashes






- Airport Elevation : 13 ft
- IATA code : LYX


EGMD - Lydd

CURRENT METAR :
  • 250250Z AUTO 27007KT 9999 NCD 09/07 Q1014

EXPIRED METARs :
  • 250220Z AUTO 24006KT 9999 NCD 09/08 Q1013
  • 250150Z AUTO 25007KT 9999 NCD 10/08 Q1013
  • 250120Z AUTO 26008KT 9999 NCD 10/09 Q1013
  • 250050Z AUTO 26006KT 9999 NCD 11/09 Q1013
  • 250020Z AUTO 24007KT 9999 NCD 11/09 Q1013

TAF TAF EGMD
Valid from the 25 at 03:00 until the 25 at 12:00 UTC


250154Z 2503/2512 24007KT 9999 SCT045
BECMG 2508/2511 23020G30KT BKN012
ATIS : +44 1797 322 422



MET'MAP, your aeronautical weather chart ! - Copyright ORBIFLY December 2007 - Disclaimer

ORBIFLY MET'MAP TEAM :

Programming & Development : Alexandra Zaïnal
Original concept : Baudouin d'Aumeries
Technical & hardware support : Manuel Goepfert
Assistance : Marc-Olivier Méhu

Contact : metmap@orbifly.com




SOURCES & CREDITS :

   NOAA